sensor_id;sensor_type;location;lat;lon;timestamp;temperature;humidity
42201;DHT22;27869;51.442;7.540;2023-07-29T00:02:19;19.00;99.90
42201;DHT22;27869;51.442;7.540;2023-07-29T00:04:46;19.00;99.90
42201;DHT22;27869;51.442;7.540;2023-07-29T00:07:13;19.00;99.90
42201;DHT22;27869;51.442;7.540;2023-07-29T00:09:40;19.00;99.90
42201;DHT22;27869;51.442;7.540;2023-07-29T00:12:10;19.00;99.90
42201;DHT22;27869;51.442;7.540;2023-07-29T00:14:39;19.00;99.90
42201;DHT22;27869;51.442;7.540;2023-07-29T00:17:06;19.00;99.90
42201;DHT22;27869;51.442;7.540;2023-07-29T00:19:33;19.00;99.90
42201;DHT22;27869;51.442;7.540;2023-07-29T00:22:00;19.00;99.90
42201;DHT22;27869;51.442;7.540;2023-07-29T00:24:27;19.00;99.90
42201;DHT22;27869;51.442;7.540;2023-07-29T00:26:54;19.00;99.90
42201;DHT22;27869;51.442;7.540;2023-07-29T00:29:21;19.00;99.90
42201;DHT22;27869;51.442;7.540;2023-07-29T00:31:49;19.00;99.90
42201;DHT22;27869;51.442;7.540;2023-07-29T00:34:16;19.00;99.90
42201;DHT22;27869;51.442;7.540;2023-07-29T00:36:44;19.00;99.90
42201;DHT22;27869;51.442;7.540;2023-07-29T00:39:11;19.00;99.90
42201;DHT22;27869;51.442;7.540;2023-07-29T00:41:38;18.90;99.90
42201;DHT22;27869;51.442;7.540;2023-07-29T00:44:06;18.90;99.90
42201;DHT22;27869;51.442;7.540;2023-07-29T00:46:34;18.90;99.90
42201;DHT22;27869;51.442;7.540;2023-07-29T00:49:04;18.90;99.90
42201;DHT22;27869;51.442;7.540;2023-07-29T00:51:31;18.80;99.90
42201;DHT22;27869;51.442;7.540;2023-07-29T00:53:58;18.80;99.90
42201;DHT22;27869;51.442;7.540;2023-07-29T00:56:25;18.80;99.90
42201;DHT22;27869;51.442;7.540;2023-07-29T00:58:52;18.80;99.90
42201;DHT22;27869;51.442;7.540;2023-07-29T01:01:24;18.70;99.90
42201;DHT22;27869;51.442;7.540;2023-07-29T01:03:51;18.70;99.90
42201;DHT22;27869;51.442;7.540;2023-07-29T01:06:23;18.70;99.90
42201;DHT22;27869;51.442;7.540;2023-07-29T01:08:58;18.70;99.90
42201;DHT22;27869;51.442;7.540;2023-07-29T01:11:35;18.70;99.90
42201;DHT22;27869;51.442;7.540;2023-07-29T01:14:14;18.70;99.90
42201;DHT22;27869;51.442;7.540;2023-07-29T01:16:49;18.70;99.90
42201;DHT22;27869;51.442;7.540;2023-07-29T01:19:31;18.70;99.90
42201;DHT22;27869;51.442;7.540;2023-07-29T01:22:03;18.70;99.90
42201;DHT22;27869;51.442;7.540;2023-07-29T01:24:32;18.60;99.90
42201;DHT22;27869;51.442;7.540;2023-07-29T01:26:58;18.70;99.90
42201;DHT22;27869;51.442;7.540;2023-07-29T01:29:27;18.70;99.90
42201;DHT22;27869;51.442;7.540;2023-07-29T01:31:56;18.60;99.90
42201;DHT22;27869;51.442;7.540;2023-07-29T01:34:29;18.60;99.90
42201;DHT22;27869;51.442;7.540;2023-07-29T01:36:59;18.60;99.90
42201;DHT22;27869;51.442;7.540;2023-07-29T01:39:29;18.60;99.90
42201;DHT22;27869;51.442;7.540;2023-07-29T01:42:00;18.60;99.90
42201;DHT22;27869;51.442;7.540;2023-07-29T01:44:28;18.60;99.90
42201;DHT22;27869;51.442;7.540;2023-07-29T01:46:55;18.60;99.90
42201;DHT22;27869;51.442;7.540;2023-07-29T01:49:22;18.60;99.90
42201;DHT22;27869;51.442;7.540;2023-07-29T01:51:49;18.60;99.90
42201;DHT22;27869;51.442;7.540;2023-07-29T01:54:16;18.60;99.90
42201;DHT22;27869;51.442;7.540;2023-07-29T01:56:42;18.60;99.90
42201;DHT22;27869;51.442;7.540;2023-07-29T01:59:10;18.60;99.90
42201;DHT22;27869;51.442;7.540;2023-07-29T02:01:39;18.50;99.90
42201;DHT22;27869;51.442;7.540;2023-07-29T02:04:05;18.60;99.90
42201;DHT22;27869;51.442;7.540;2023-07-29T02:06:32;18.50;99.90
42201;DHT22;27869;51.442;7.540;2023-07-29T02:08:59;18.50;99.90
42201;DHT22;27869;51.442;7.540;2023-07-29T02:11:26;18.50;99.90
42201;DHT22;27869;51.442;7.540;2023-07-29T02:13:53;18.50;99.90
42201;DHT22;27869;51.442;7.540;2023-07-29T02:16:22;18.50;99.90
42201;DHT22;27869;51.442;7.540;2023-07-29T02:18:49;18.50;99.90
42201;DHT22;27869;51.442;7.540;2023-07-29T02:21:16;18.50;99.90
42201;DHT22;27869;51.442;7.540;2023-07-29T02:23:43;18.40;99.90
42201;DHT22;27869;51.442;7.540;2023-07-29T02:26:10;18.40;99.90
42201;DHT22;27869;51.442;7.540;2023-07-29T02:28:36;18.40;99.90
42201;DHT22;27869;51.442;7.540;2023-07-29T02:31:15;18.40;99.90
42201;DHT22;27869;51.442;7.540;2023-07-29T02:33:43;18.40;99.90
42201;DHT22;27869;51.442;7.540;2023-07-29T02:36:12;18.40;99.90
42201;DHT22;27869;51.442;7.540;2023-07-29T02:38:39;18.40;99.90
42201;DHT22;27869;51.442;7.540;2023-07-29T02:41:07;18.40;99.90
42201;DHT22;27869;51.442;7.540;2023-07-29T02:43:35;18.40;99.90
42201;DHT22;27869;51.442;7.540;2023-07-29T02:46:02;18.40;99.90
42201;DHT22;27869;51.442;7.540;2023-07-29T02:48:29;18.40;99.90
42201;DHT22;27869;51.442;7.540;2023-07-29T02:50:57;18.40;99.90
42201;DHT22;27869;51.442;7.540;2023-07-29T02:53:24;18.30;99.90
42201;DHT22;27869;51.442;7.540;2023-07-29T02:55:51;18.40;99.90
42201;DHT22;27869;51.442;7.540;2023-07-29T02:58:18;18.40;99.90
42201;DHT22;27869;51.442;7.540;2023-07-29T03:00:45;18.40;99.90
42201;DHT22;27869;51.442;7.540;2023-07-29T03:03:13;18.40;99.90
42201;DHT22;27869;51.442;7.540;2023-07-29T03:05:40;18.40;99.90
42201;DHT22;27869;51.442;7.540;2023-07-29T03:08:08;18.40;99.90
42201;DHT22;27869;51.442;7.540;2023-07-29T03:10:35;18.40;99.90
42201;DHT22;27869;51.442;7.540;2023-07-29T03:13:02;18.30;99.90
42201;DHT22;27869;51.442;7.540;2023-07-29T03:15:29;18.30;99.90
42201;DHT22;27869;51.442;7.540;2023-07-29T03:17:56;18.30;99.90
42201;DHT22;27869;51.442;7.540;2023-07-29T03:20:23;18.30;99.90
42201;DHT22;27869;51.442;7.540;2023-07-29T03:22:50;18.30;99.90
42201;DHT22;27869;51.442;7.540;2023-07-29T03:25:18;18.30;99.90
42201;DHT22;27869;51.442;7.540;2023-07-29T03:27:45;18.30;99.90
42201;DHT22;27869;51.442;7.540;2023-07-29T03:30:15;18.30;99.90
42201;DHT22;27869;51.442;7.540;2023-07-29T03:32:43;18.30;99.90
42201;DHT22;27869;51.442;7.540;2023-07-29T03:35:11;18.30;99.90
42201;DHT22;27869;51.442;7.540;2023-07-29T03:37:38;18.30;99.90
42201;DHT22;27869;51.442;7.540;2023-07-29T03:40:06;18.30;99.90
42201;DHT22;27869;51.442;7.540;2023-07-29T03:42:36;18.30;99.90
42201;DHT22;27869;51.442;7.540;2023-07-29T03:45:03;18.30;99.90
42201;DHT22;27869;51.442;7.540;2023-07-29T03:47:30;18.30;99.90
42201;DHT22;27869;51.442;7.540;2023-07-29T03:49:57;18.30;99.90
42201;DHT22;27869;51.442;7.540;2023-07-29T03:52:24;18.20;99.90
42201;DHT22;27869;51.442;7.540;2023-07-29T03:54:51;18.20;99.90
42201;DHT22;27869;51.442;7.540;2023-07-29T03:57:18;18.20;99.90
42201;DHT22;27869;51.442;7.540;2023-07-29T03:59:46;18.20;99.90
42201;DHT22;27869;51.442;7.540;2023-07-29T04:02:13;18.20;99.90
42201;DHT22;27869;51.442;7.540;2023-07-29T04:04:40;18.20;99.90
42201;DHT22;27869;51.442;7.540;2023-07-29T04:07:07;18.20;99.90
42201;DHT22;27869;51.442;7.540;2023-07-29T04:09:34;18.10;99.90
42201;DHT22;27869;51.442;7.540;2023-07-29T04:12:02;18.20;99.90
42201;DHT22;27869;51.442;7.540;2023-07-29T04:14:29;18.20;99.90
42201;DHT22;27869;51.442;7.540;2023-07-29T04:16:57;18.20;99.90
42201;DHT22;27869;51.442;7.540;2023-07-29T04:19:24;18.20;99.90
42201;DHT22;27869;51.442;7.540;2023-07-29T04:21:51;18.20;99.90
42201;DHT22;27869;51.442;7.540;2023-07-29T04:24:17;18.20;99.90
42201;DHT22;27869;51.442;7.540;2023-07-29T04:26:45;18.20;99.90
42201;DHT22;27869;51.442;7.540;2023-07-29T04:29:12;18.20;99.90
42201;DHT22;27869;51.442;7.540;2023-07-29T04:31:39;18.20;99.90
42201;DHT22;27869;51.442;7.540;2023-07-29T04:34:07;18.20;99.90
42201;DHT22;27869;51.442;7.540;2023-07-29T04:36:34;18.20;99.90
42201;DHT22;27869;51.442;7.540;2023-07-29T04:39:01;18.20;99.90
42201;DHT22;27869;51.442;7.540;2023-07-29T04:41:28;18.20;99.90
42201;DHT22;27869;51.442;7.540;2023-07-29T04:43:55;18.20;99.90
42201;DHT22;27869;51.442;7.540;2023-07-29T04:46:22;18.30;99.90
42201;DHT22;27869;51.442;7.540;2023-07-29T04:48:48;18.30;99.90
42201;DHT22;27869;51.442;7.540;2023-07-29T04:51:17;18.30;99.90
42201;DHT22;27869;51.442;7.540;2023-07-29T04:53:43;18.30;99.90
42201;DHT22;27869;51.442;7.540;2023-07-29T04:56:11;18.40;99.90
42201;DHT22;27869;51.442;7.540;2023-07-29T04:58:37;18.40;99.90
42201;DHT22;27869;51.442;7.540;2023-07-29T05:01:05;18.40;99.90
42201;DHT22;27869;51.442;7.540;2023-07-29T05:03:32;18.40;99.90
42201;DHT22;27869;51.442;7.540;2023-07-29T05:05:59;18.40;99.90
42201;DHT22;27869;51.442;7.540;2023-07-29T05:08:27;18.40;99.90
42201;DHT22;27869;51.442;7.540;2023-07-29T05:10:54;18.40;99.90
42201;DHT22;27869;51.442;7.540;2023-07-29T05:13:22;18.40;99.90
42201;DHT22;27869;51.442;7.540;2023-07-29T05:15:49;18.40;99.90
42201;DHT22;27869;51.442;7.540;2023-07-29T05:18:17;18.50;99.90
42201;DHT22;27869;51.442;7.540;2023-07-29T05:20:43;18.50;99.90
42201;DHT22;27869;51.442;7.540;2023-07-29T05:23:10;18.50;99.90
42201;DHT22;27869;51.442;7.540;2023-07-29T05:25:38;18.50;99.90
42201;DHT22;27869;51.442;7.540;2023-07-29T05:28:05;18.50;99.90
42201;DHT22;27869;51.442;7.540;2023-07-29T05:30:33;18.50;99.90
42201;DHT22;27869;51.442;7.540;2023-07-29T05:33:03;18.50;99.90
42201;DHT22;27869;51.442;7.540;2023-07-29T05:35:29;18.50;99.90
42201;DHT22;27869;51.442;7.540;2023-07-29T05:37:56;18.50;99.90
42201;DHT22;27869;51.442;7.540;2023-07-29T05:40:23;18.50;99.90
42201;DHT22;27869;51.442;7.540;2023-07-29T05:42:51;18.50;99.90
42201;DHT22;27869;51.442;7.540;2023-07-29T05:45:18;18.50;99.90
42201;DHT22;27869;51.442;7.540;2023-07-29T05:47:45;18.50;99.90
42201;DHT22;27869;51.442;7.540;2023-07-29T05:50:13;18.50;99.90
42201;DHT22;27869;51.442;7.540;2023-07-29T05:52:39;18.50;99.90
42201;DHT22;27869;51.442;7.540;2023-07-29T05:55:07;18.50;99.90
42201;DHT22;27869;51.442;7.540;2023-07-29T05:57:36;18.50;99.90
42201;DHT22;27869;51.442;7.540;2023-07-29T06:00:06;18.50;99.90
42201;DHT22;27869;51.442;7.540;2023-07-29T06:02:32;18.50;99.90
42201;DHT22;27869;51.442;7.540;2023-07-29T06:04:59;18.50;99.90
42201;DHT22;27869;51.442;7.540;2023-07-29T06:07:28;18.60;99.90
42201;DHT22;27869;51.442;7.540;2023-07-29T06:09:56;18.60;99.90
42201;DHT22;27869;51.442;7.540;2023-07-29T06:12:23;18.60;99.90
42201;DHT22;27869;51.442;7.540;2023-07-29T06:14:50;18.60;99.90
42201;DHT22;27869;51.442;7.540;2023-07-29T06:17:18;18.50;99.90
42201;DHT22;27869;51.442;7.540;2023-07-29T06:19:45;18.60;99.90
42201;DHT22;27869;51.442;7.540;2023-07-29T06:22:12;18.60;99.90
42201;DHT22;27869;51.442;7.540;2023-07-29T06:24:38;18.50;99.90
42201;DHT22;27869;51.442;7.540;2023-07-29T06:27:06;18.50;99.90
42201;DHT22;27869;51.442;7.540;2023-07-29T06:29:32;18.50;99.90
42201;DHT22;27869;51.442;7.540;2023-07-29T06:31:59;18.50;99.90
42201;DHT22;27869;51.442;7.540;2023-07-29T06:34:28;18.40;99.90
42201;DHT22;27869;51.442;7.540;2023-07-29T06:36:54;18.40;99.90
42201;DHT22;27869;51.442;7.540;2023-07-29T06:39:21;18.40;99.90
42201;DHT22;27869;51.442;7.540;2023-07-29T06:41:48;18.40;99.90
42201;DHT22;27869;51.442;7.540;2023-07-29T06:44:15;18.40;99.90
42201;DHT22;27869;51.442;7.540;2023-07-29T06:46:42;18.40;99.90
42201;DHT22;27869;51.442;7.540;2023-07-29T06:49:09;18.40;99.90
42201;DHT22;27869;51.442;7.540;2023-07-29T06:51:37;18.40;99.90
42201;DHT22;27869;51.442;7.540;2023-07-29T06:54:04;18.40;99.90
42201;DHT22;27869;51.442;7.540;2023-07-29T06:56:31;18.40;99.90
42201;DHT22;27869;51.442;7.540;2023-07-29T06:58:58;18.40;99.90
42201;DHT22;27869;51.442;7.540;2023-07-29T07:01:25;18.40;99.90
42201;DHT22;27869;51.442;7.540;2023-07-29T07:03:52;18.40;99.90
42201;DHT22;27869;51.442;7.540;2023-07-29T07:06:20;18.50;99.90
42201;DHT22;27869;51.442;7.540;2023-07-29T07:08:48;18.50;99.90
42201;DHT22;27869;51.442;7.540;2023-07-29T07:11:15;18.50;99.90
42201;DHT22;27869;51.442;7.540;2023-07-29T07:13:42;18.50;99.90
42201;DHT22;27869;51.442;7.540;2023-07-29T07:16:09;18.50;99.90
42201;DHT22;27869;51.442;7.540;2023-07-29T07:18:36;18.50;99.90
42201;DHT22;27869;51.442;7.540;2023-07-29T07:21:02;18.50;99.90
42201;DHT22;27869;51.442;7.540;2023-07-29T07:23:29;18.50;99.90
42201;DHT22;27869;51.442;7.540;2023-07-29T07:25:57;18.50;99.90
42201;DHT22;27869;51.442;7.540;2023-07-29T07:28:24;18.50;99.90
42201;DHT22;27869;51.442;7.540;2023-07-29T07:30:51;18.50;99.90
42201;DHT22;27869;51.442;7.540;2023-07-29T07:33:18;18.50;99.90
42201;DHT22;27869;51.442;7.540;2023-07-29T07:35:45;18.50;99.90
42201;DHT22;27869;51.442;7.540;2023-07-29T07:38:12;18.50;99.90
42201;DHT22;27869;51.442;7.540;2023-07-29T07:40:38;18.50;99.90
42201;DHT22;27869;51.442;7.540;2023-07-29T07:43:07;18.50;99.90
42201;DHT22;27869;51.442;7.540;2023-07-29T07:45:34;18.50;99.90
42201;DHT22;27869;51.442;7.540;2023-07-29T07:48:00;18.50;99.90
42201;DHT22;27869;51.442;7.540;2023-07-29T07:50:29;18.50;99.90
42201;DHT22;27869;51.442;7.540;2023-07-29T07:52:56;18.60;99.90
42201;DHT22;27869;51.442;7.540;2023-07-29T07:55:23;18.60;99.90
42201;DHT22;27869;51.442;7.540;2023-07-29T07:57:50;18.70;99.90
42201;DHT22;27869;51.442;7.540;2023-07-29T08:00:18;18.80;99.90
42201;DHT22;27869;51.442;7.540;2023-07-29T08:02:45;18.90;99.90
42201;DHT22;27869;51.442;7.540;2023-07-29T08:05:12;18.90;99.90
42201;DHT22;27869;51.442;7.540;2023-07-29T08:07:39;18.90;99.90
42201;DHT22;27869;51.442;7.540;2023-07-29T08:10:07;19.00;99.90
42201;DHT22;27869;51.442;7.540;2023-07-29T08:12:34;19.20;99.90
42201;DHT22;27869;51.442;7.540;2023-07-29T08:15:00;19.30;99.90
42201;DHT22;27869;51.442;7.540;2023-07-29T08:17:29;19.40;99.90
42201;DHT22;27869;51.442;7.540;2023-07-29T08:19:56;19.60;99.90
42201;DHT22;27869;51.442;7.540;2023-07-29T08:22:23;19.70;99.90
42201;DHT22;27869;51.442;7.540;2023-07-29T08:24:50;19.80;99.90
42201;DHT22;27869;51.442;7.540;2023-07-29T08:27:18;19.80;99.90
42201;DHT22;27869;51.442;7.540;2023-07-29T08:29:44;19.70;99.90
42201;DHT22;27869;51.442;7.540;2023-07-29T08:32:11;19.60;99.90
42201;DHT22;27869;51.442;7.540;2023-07-29T08:34:39;19.60;99.90
42201;DHT22;27869;51.442;7.540;2023-07-29T08:37:06;19.60;99.90
42201;DHT22;27869;51.442;7.540;2023-07-29T08:39:33;19.60;99.90
42201;DHT22;27869;51.442;7.540;2023-07-29T08:42:01;19.70;99.90
42201;DHT22;27869;51.442;7.540;2023-07-29T08:44:33;19.80;99.90
42201;DHT22;27869;51.442;7.540;2023-07-29T08:47:02;20.00;99.90
42201;DHT22;27869;51.442;7.540;2023-07-29T08:49:30;20.10;99.90
42201;DHT22;27869;51.442;7.540;2023-07-29T08:51:59;20.20;99.90
42201;DHT22;27869;51.442;7.540;2023-07-29T08:54:26;20.10;99.90
42201;DHT22;27869;51.442;7.540;2023-07-29T08:56:53;20.10;99.90
42201;DHT22;27869;51.442;7.540;2023-07-29T08:59:20;20.20;99.90
42201;DHT22;27869;51.442;7.540;2023-07-29T09:01:47;20.20;99.90
42201;DHT22;27869;51.442;7.540;2023-07-29T09:04:14;20.40;99.90
42201;DHT22;27869;51.442;7.540;2023-07-29T09:06:43;20.50;99.90
42201;DHT22;27869;51.442;7.540;2023-07-29T09:09:11;20.70;99.90
42201;DHT22;27869;51.442;7.540;2023-07-29T09:11:38;20.90;99.90
42201;DHT22;27869;51.442;7.540;2023-07-29T09:14:05;21.00;99.90
42201;DHT22;27869;51.442;7.540;2023-07-29T09:16:32;21.20;99.90
42201;DHT22;27869;51.442;7.540;2023-07-29T09:19:01;21.30;99.90
42201;DHT22;27869;51.442;7.540;2023-07-29T09:21:28;21.40;99.90
42201;DHT22;27869;51.442;7.540;2023-07-29T09:23:55;21.40;99.90
42201;DHT22;27869;51.442;7.540;2023-07-29T09:26:24;21.50;99.90
42201;DHT22;27869;51.442;7.540;2023-07-29T09:28:53;21.60;99.90
42201;DHT22;27869;51.442;7.540;2023-07-29T09:31:21;21.60;99.90
42201;DHT22;27869;51.442;7.540;2023-07-29T09:33:47;21.60;99.90
42201;DHT22;27869;51.442;7.540;2023-07-29T09:36:14;21.60;99.90
42201;DHT22;27869;51.442;7.540;2023-07-29T09:38:46;21.70;99.90
42201;DHT22;27869;51.442;7.540;2023-07-29T09:41:13;21.90;99.90
42201;DHT22;27869;51.442;7.540;2023-07-29T09:43:42;22.00;99.90
42201;DHT22;27869;51.442;7.540;2023-07-29T09:46:08;22.10;99.90
42201;DHT22;27869;51.442;7.540;2023-07-29T09:48:37;22.20;99.90
42201;DHT22;27869;51.442;7.540;2023-07-29T09:51:10;22.30;99.90
42201;DHT22;27869;51.442;7.540;2023-07-29T09:53:40;22.30;99.90
42201;DHT22;27869;51.442;7.540;2023-07-29T09:56:08;22.40;99.90
42201;DHT22;27869;51.442;7.540;2023-07-29T09:58:35;22.50;99.90
42201;DHT22;27869;51.442;7.540;2023-07-29T10:01:05;22.50;99.90
42201;DHT22;27869;51.442;7.540;2023-07-29T10:03:33;22.50;99.90
42201;DHT22;27869;51.442;7.540;2023-07-29T10:06:01;22.40;99.90
42201;DHT22;27869;51.442;7.540;2023-07-29T10:08:29;22.40;99.90
42201;DHT22;27869;51.442;7.540;2023-07-29T10:10:59;22.40;99.90
42201;DHT22;27869;51.442;7.540;2023-07-29T10:13:26;22.40;99.90
42201;DHT22;27869;51.442;7.540;2023-07-29T10:15:53;22.40;99.90
42201;DHT22;27869;51.442;7.540;2023-07-29T10:18:23;22.30;99.90
42201;DHT22;27869;51.442;7.540;2023-07-29T10:20:50;22.30;99.90
42201;DHT22;27869;51.442;7.540;2023-07-29T10:23:17;22.20;99.90
42201;DHT22;27869;51.442;7.540;2023-07-29T10:25:46;22.10;99.90
42201;DHT22;27869;51.442;7.540;2023-07-29T10:28:15;22.10;99.90
42201;DHT22;27869;51.442;7.540;2023-07-29T10:30:42;22.20;99.90
42201;DHT22;27869;51.442;7.540;2023-07-29T10:33:09;22.20;99.90
42201;DHT22;27869;51.442;7.540;2023-07-29T10:35:38;22.30;99.90
42201;DHT22;27869;51.442;7.540;2023-07-29T10:38:06;22.40;99.90
42201;DHT22;27869;51.442;7.540;2023-07-29T10:40:47;22.60;99.90
42201;DHT22;27869;51.442;7.540;2023-07-29T10:43:19;22.70;99.90
42201;DHT22;27869;51.442;7.540;2023-07-29T10:45:50;22.70;99.90
42201;DHT22;27869;51.442;7.540;2023-07-29T10:48:41;22.70;99.90
42201;DHT22;27869;51.442;7.540;2023-07-29T10:51:26;22.70;99.90
42201;DHT22;27869;51.442;7.540;2023-07-29T10:53:56;22.60;99.90
42201;DHT22;27869;51.442;7.540;2023-07-29T10:56:27;22.50;99.90
42201;DHT22;27869;51.442;7.540;2023-07-29T10:58:56;22.50;99.90
42201;DHT22;27869;51.442;7.540;2023-07-29T11:01:27;22.40;99.90
42201;DHT22;27869;51.442;7.540;2023-07-29T11:04:28;22.40;99.90
42201;DHT22;27869;51.442;7.540;2023-07-29T11:07:25;22.50;99.90
42201;DHT22;27869;51.442;7.540;2023-07-29T11:09:59;22.60;99.90
42201;DHT22;27869;51.442;7.540;2023-07-29T11:12:40;22.70;99.90
42201;DHT22;27869;51.442;7.540;2023-07-29T11:15:24;22.70;99.90
42201;DHT22;27869;51.442;7.540;2023-07-29T11:17:52;22.80;99.90
42201;DHT22;27869;51.442;7.540;2023-07-29T11:20:21;22.80;99.90
42201;DHT22;27869;51.442;7.540;2023-07-29T11:22:50;22.80;99.90
42201;DHT22;27869;51.442;7.540;2023-07-29T11:25:18;22.90;99.90
42201;DHT22;27869;51.442;7.540;2023-07-29T11:27:46;22.90;99.90
42201;DHT22;27869;51.442;7.540;2023-07-29T11:30:14;22.90;99.90
42201;DHT22;27869;51.442;7.540;2023-07-29T11:32:42;23.00;99.90
42201;DHT22;27869;51.442;7.540;2023-07-29T11:35:11;23.10;99.90
42201;DHT22;27869;51.442;7.540;2023-07-29T11:37:39;23.20;99.90
42201;DHT22;27869;51.442;7.540;2023-07-29T11:40:08;23.30;99.90
42201;DHT22;27869;51.442;7.540;2023-07-29T11:42:37;23.30;99.90
42201;DHT22;27869;51.442;7.540;2023-07-29T11:45:04;23.30;99.90
42201;DHT22;27869;51.442;7.540;2023-07-29T11:47:32;23.30;99.90
42201;DHT22;27869;51.442;7.540;2023-07-29T11:50:02;23.30;99.90
42201;DHT22;27869;51.442;7.540;2023-07-29T11:52:31;23.30;99.90
42201;DHT22;27869;51.442;7.540;2023-07-29T11:55:00;23.40;99.90
42201;DHT22;27869;51.442;7.540;2023-07-29T11:57:31;23.40;99.90
42201;DHT22;27869;51.442;7.540;2023-07-29T12:00:03;23.30;99.90
42201;DHT22;27869;51.442;7.540;2023-07-29T12:02:36;23.30;99.90
42201;DHT22;27869;51.442;7.540;2023-07-29T12:05:04;23.30;99.90
42201;DHT22;27869;51.442;7.540;2023-07-29T12:07:32;23.30;99.90
42201;DHT22;27869;51.442;7.540;2023-07-29T12:10:00;23.30;99.90
42201;DHT22;27869;51.442;7.540;2023-07-29T12:12:30;23.20;99.90
42201;DHT22;27869;51.442;7.540;2023-07-29T12:14:57;23.20;99.90
42201;DHT22;27869;51.442;7.540;2023-07-29T12:17:23;23.20;99.90
42201;DHT22;27869;51.442;7.540;2023-07-29T12:19:54;23.20;99.90
42201;DHT22;27869;51.442;7.540;2023-07-29T12:22:21;23.20;99.90
42201;DHT22;27869;51.442;7.540;2023-07-29T12:24:51;23.20;99.90
42201;DHT22;27869;51.442;7.540;2023-07-29T12:27:18;23.30;99.90
42201;DHT22;27869;51.442;7.540;2023-07-29T12:29:51;23.30;99.90
42201;DHT22;27869;51.442;7.540;2023-07-29T12:32:18;23.20;99.90
42201;DHT22;27869;51.442;7.540;2023-07-29T12:34:46;23.20;99.90
42201;DHT22;27869;51.442;7.540;2023-07-29T12:37:13;23.20;99.90
42201;DHT22;27869;51.442;7.540;2023-07-29T12:39:41;23.20;99.90
42201;DHT22;27869;51.442;7.540;2023-07-29T12:42:08;23.20;99.90
42201;DHT22;27869;51.442;7.540;2023-07-29T12:44:36;23.20;99.90
42201;DHT22;27869;51.442;7.540;2023-07-29T12:47:05;23.20;99.90
42201;DHT22;27869;51.442;7.540;2023-07-29T12:49:34;23.10;99.90
42201;DHT22;27869;51.442;7.540;2023-07-29T12:52:01;23.10;99.90
42201;DHT22;27869;51.442;7.540;2023-07-29T12:54:28;23.10;99.90
42201;DHT22;27869;51.442;7.540;2023-07-29T12:56:55;23.10;99.90
42201;DHT22;27869;51.442;7.540;2023-07-29T12:59:22;23.10;99.90
42201;DHT22;27869;51.442;7.540;2023-07-29T13:01:49;23.10;99.90
42201;DHT22;27869;51.442;7.540;2023-07-29T13:04:17;23.10;99.90
42201;DHT22;27869;51.442;7.540;2023-07-29T13:06:44;23.10;99.90
42201;DHT22;27869;51.442;7.540;2023-07-29T13:09:10;23.10;99.90
42201;DHT22;27869;51.442;7.540;2023-07-29T13:11:37;23.10;99.90
42201;DHT22;27869;51.442;7.540;2023-07-29T13:14:04;23.20;99.90
42201;DHT22;27869;51.442;7.540;2023-07-29T13:16:31;23.10;99.90
42201;DHT22;27869;51.442;7.540;2023-07-29T13:18:58;23.10;99.90
42201;DHT22;27869;51.442;7.540;2023-07-29T13:21:26;23.10;99.90
42201;DHT22;27869;51.442;7.540;2023-07-29T13:23:53;23.10;99.90
42201;DHT22;27869;51.442;7.540;2023-07-29T13:26:22;23.10;99.90
42201;DHT22;27869;51.442;7.540;2023-07-29T13:28:49;23.10;99.90
42201;DHT22;27869;51.442;7.540;2023-07-29T13:31:16;23.10;99.90
42201;DHT22;27869;51.442;7.540;2023-07-29T13:33:43;23.10;99.90
42201;DHT22;27869;51.442;7.540;2023-07-29T13:36:10;23.10;99.90
42201;DHT22;27869;51.442;7.540;2023-07-29T13:38:38;23.10;99.90
42201;DHT22;27869;51.442;7.540;2023-07-29T13:41:05;23.10;99.90
42201;DHT22;27869;51.442;7.540;2023-07-29T13:43:31;23.10;99.90
42201;DHT22;27869;51.442;7.540;2023-07-29T13:45:58;23.10;99.90
42201;DHT22;27869;51.442;7.540;2023-07-29T13:48:25;23.10;99.90
42201;DHT22;27869;51.442;7.540;2023-07-29T13:50:52;23.10;99.90
42201;DHT22;27869;51.442;7.540;2023-07-29T13:53:19;23.10;99.90
42201;DHT22;27869;51.442;7.540;2023-07-29T13:55:47;23.10;99.90
42201;DHT22;27869;51.442;7.540;2023-07-29T13:58:14;23.10;99.90
42201;DHT22;27869;51.442;7.540;2023-07-29T14:00:41;23.00;99.90
42201;DHT22;27869;51.442;7.540;2023-07-29T14:03:07;23.00;99.90
42201;DHT22;27869;51.442;7.540;2023-07-29T14:05:34;23.00;99.90
42201;DHT22;27869;51.442;7.540;2023-07-29T14:08:01;22.90;99.90
42201;DHT22;27869;51.442;7.540;2023-07-29T14:10:28;22.90;99.90
42201;DHT22;27869;51.442;7.540;2023-07-29T14:12:56;22.80;99.90
42201;DHT22;27869;51.442;7.540;2023-07-29T14:15:23;22.80;99.90
42201;DHT22;27869;51.442;7.540;2023-07-29T14:17:50;22.80;99.90
42201;DHT22;27869;51.442;7.540;2023-07-29T14:20:17;22.70;99.90
42201;DHT22;27869;51.442;7.540;2023-07-29T14:22:44;22.60;99.90
42201;DHT22;27869;51.442;7.540;2023-07-29T14:25:11;22.60;99.90
42201;DHT22;27869;51.442;7.540;2023-07-29T14:27:39;22.60;99.90
42201;DHT22;27869;51.442;7.540;2023-07-29T14:30:08;22.60;99.90
42201;DHT22;27869;51.442;7.540;2023-07-29T14:32:35;22.50;99.90
42201;DHT22;27869;51.442;7.540;2023-07-29T14:35:03;22.40;99.90
42201;DHT22;27869;51.442;7.540;2023-07-29T14:37:30;22.30;99.90
42201;DHT22;27869;51.442;7.540;2023-07-29T14:39:57;22.20;99.90
42201;DHT22;27869;51.442;7.540;2023-07-29T14:42:24;22.20;99.90
42201;DHT22;27869;51.442;7.540;2023-07-29T14:44:51;22.10;99.90
42201;DHT22;27869;51.442;7.540;2023-07-29T14:47:19;22.00;99.90
42201;DHT22;27869;51.442;7.540;2023-07-29T14:49:46;21.90;99.90
42201;DHT22;27869;51.442;7.540;2023-07-29T14:52:13;21.80;99.90
42201;DHT22;27869;51.442;7.540;2023-07-29T14:54:40;21.70;99.90
42201;DHT22;27869;51.442;7.540;2023-07-29T14:57:07;21.60;99.90
42201;DHT22;27869;51.442;7.540;2023-07-29T14:59:34;21.50;99.90
42201;DHT22;27869;51.442;7.540;2023-07-29T15:02:01;21.60;99.90
42201;DHT22;27869;51.442;7.540;2023-07-29T15:04:29;21.60;99.90
42201;DHT22;27869;51.442;7.540;2023-07-29T15:06:56;21.60;99.90
42201;DHT22;27869;51.442;7.540;2023-07-29T15:09:23;21.60;99.90
42201;DHT22;27869;51.442;7.540;2023-07-29T15:11:50;21.60;99.90
42201;DHT22;27869;51.442;7.540;2023-07-29T15:14:17;21.40;99.90
42201;DHT22;27869;51.442;7.540;2023-07-29T15:16:44;21.30;99.90
42201;DHT22;27869;51.442;7.540;2023-07-29T15:19:11;21.20;99.90
42201;DHT22;27869;51.442;7.540;2023-07-29T15:21:40;21.00;99.90
42201;DHT22;27869;51.442;7.540;2023-07-29T15:24:07;21.00;99.90
42201;DHT22;27869;51.442;7.540;2023-07-29T15:26:34;20.80;99.90
42201;DHT22;27869;51.442;7.540;2023-07-29T15:29:01;20.80;99.90
42201;DHT22;27869;51.442;7.540;2023-07-29T15:31:28;20.80;99.90
42201;DHT22;27869;51.442;7.540;2023-07-29T15:33:55;20.60;99.90
42201;DHT22;27869;51.442;7.540;2023-07-29T15:36:22;20.40;99.90